Domov               UVHVVR             MKGP            O straneh              
ZDRAVSTVENO VARSTVO RASTLIN
  MREŽA AGROMET. POSTAJ
 ► PROGNOSTIČNA OBVESTILA
AGROMETEOROLOŠKI PODATKI -
ARSO
OBVLADOVANJE TVEGANJ ZARADI
NEUGODNIH VREMENSKIH RAZMER
  ► NARAVNE NESREČE
  ► SUŠA/MOČA
  ► NAMAKANJE
  ► ŽLED (gozdarstvo)
KARTOGRAFSKI PRIKAZI
SPLETNE POVEZAVE
PROJEKTI IN PUBLIKACIJE

AGROMETEOROLOŠKA MREŽA: VREMENSKE POSTAJE IN FENOLOŠKA OPAZOVANJA

Pregled podatkov za lokacijo Drenov grič, meteorološka postaja 39324

Pregled senzorjev na lokaciji

ID Ime Zadnja
vrednost
Datum
zadnje
spremembe
Tip
senzorja
3811 Padavine (mm) 0 mm 19.7.2018 05:30 Rain-O-Matic
3813 Relativna vlaga 2 m (% RH) 99,68 % RH 19.7.2018 05:30 50YA
3812 Temperatura 2 m (°C) 10,94 °C 19.7.2018 05:30 50YA

Pregled podatkov zadnjih 24 ur

Zap.
št.
Datum in čas Drenov grič
Padavine Relativna
vlaga
2
m
Temperatura
2
m
1 19.7.2018 06:00
2 19.7.2018 05:30
3 19.7.2018 05:00
4 19.7.2018 04:30 0 99,7 10,9
5 19.7.2018 04:00 0 99,7 11,6
6 19.7.2018 03:30 0 99,6 11,4
7 19.7.2018 03:00 0 99,3 11,7
8 19.7.2018 02:30 0 99,2 12,1
9 19.7.2018 02:00 0 99 12,6
10 19.7.2018 01:30 0 99,1 13,7
11 19.7.2018 01:00 0 99 13,7
12 19.7.2018 00:30 0 98,4 13,7
13 19.7.2018 00:00 0 98,3 14,4
14 18.7.2018 23:30 0 98 15,4
15 18.7.2018 23:00 0 97,8 16,3
16 18.7.2018 22:30 0 97,2 16,5
17 18.7.2018 22:00 0 96,8 17,3
18 18.7.2018 21:30 0 96,8 17,6
19 18.7.2018 21:00 0 95,8 17,9
20 18.7.2018 20:30 0 94,4 18,7
21 18.7.2018 20:00 0 89,7 20
22 18.7.2018 19:30 0 81 22,8
23 18.7.2018 19:00 0 69,6 24,9
24 18.7.2018 18:30 0 64,4 25,1
25 18.7.2018 18:00 0 64,1 24,6
26 18.7.2018 17:30 0 61,7 24,7
27 18.7.2018 17:00 0 63 24,5
28 18.7.2018 16:30 0 65,8 23,6
29 18.7.2018 16:00 1,8 78,2 20,6
30 18.7.2018 15:30 0 66,9 22,7
31 18.7.2018 15:00 0 58 25,1
32 18.7.2018 14:30 0 52,7 25,6
33 18.7.2018 14:00 0 50,8 27,7
34 18.7.2018 13:30 0 34,7 30,5
35 18.7.2018 13:00 0 34,2 31,5
36 18.7.2018 12:30 0 35,6 31,1
37 18.7.2018 12:00 0 35,8 30,8
38 18.7.2018 11:30 0 36,7 30,2
39 18.7.2018 11:00 0 38,6 29,5
40 18.7.2018 10:30 0 47,8 28,4
41 18.7.2018 10:00 0 55,6 26,8
42 18.7.2018 09:30 0 59,6 25,6
43 18.7.2018 09:00 0 65,3 24,1
44 18.7.2018 08:30 0 68,4 22,9
45 18.7.2018 08:00 0 70,4 22,4
46 18.7.2018 07:30 0 75,5 20,6
47 18.7.2018 07:00 0 80,7 19,3
48 18.7.2018 06:30 0 93 17,2
© 2011 Ministrstvo za kmetijstvo, gozdarstvo in prehrano. Vse pravice pridržane.